Time;durP1;ratioP1;P1;durP2;ratioP2;P2;SDS_P1;SDS_P2;PMS_P1;PMS_P2;Temp;Humidity;BMP_temperature;BMP_pressure;BME280_temperature;BME280_humidity;BME280_pressure;Samples;Min_cycle;Max_cycle;Signal;HPM_P1;HPM_P2
2022/08/05 00:00:17;;;;;;;6.93;3.40;;;19.10;99.90;;;;;;5015910;28;20492;-86
2022/08/05 00:02:43;;;;;;;4.90;2.60;;;19.00;99.90;;;;;;5015704;28;20174;-87
2022/08/05 00:05:09;;;;;;;6.40;3.27;;;19.00;99.90;;;;;;5014629;28;20417;-86
2022/08/05 00:07:34;;;;;;;5.83;3.07;;;19.00;99.90;;;;;;5015423;28;20511;-89
2022/08/05 00:10:00;;;;;;;5.60;3.03;;;18.90;99.90;;;;;;5014903;28;20210;-87
2022/08/05 00:12:26;;;;;;;4.93;2.50;;;18.90;99.90;;;;;;5013460;28;20174;-86
2022/08/05 00:14:51;;;;;;;4.33;2.20;;;18.90;99.90;;;;;;4997444;28;20181;-86
2022/08/05 00:17:17;;;;;;;4.07;2.30;;;18.90;99.90;;;;;;4998758;28;20178;-87
2022/08/05 00:19:42;;;;;;;3.53;2.53;;;18.80;99.90;;;;;;5005296;28;20264;-86
2022/08/05 00:22:08;;;;;;;5.77;3.07;;;18.90;99.90;;;;;;5011739;28;20192;-86
2022/08/05 00:24:33;;;;;;;5.13;2.17;;;18.80;99.90;;;;;;5016456;28;20232;-87
2022/08/05 00:26:59;;;;;;;5.87;2.90;;;18.80;99.90;;;;;;4997318;28;20180;-87
2022/08/05 00:29:25;;;;;;;4.13;2.10;;;18.80;99.90;;;;;;4997290;28;20231;-87
2022/08/05 00:31:52;;;;;;;4.70;1.77;;;18.80;99.90;;;;;;5014752;28;20430;-87
2022/08/05 00:34:17;;;;;;;5.93;2.53;;;18.80;99.90;;;;;;4997285;28;20480;-86
2022/08/05 00:36:43;;;;;;;2.93;1.70;;;18.70;99.90;;;;;;5013627;28;20423;-86
2022/08/05 00:39:08;;;;;;;7.00;2.93;;;18.80;99.90;;;;;;4997002;28;20170;-86
2022/08/05 00:41:34;;;;;;;5.13;2.60;;;18.80;99.90;;;;;;4996958;28;20174;-86
2022/08/05 00:44:00;;;;;;;4.97;1.63;;;18.80;99.90;;;;;;4996474;28;20213;-86
2022/08/05 00:46:26;;;;;;;3.40;2.10;;;18.70;99.90;;;;;;5014478;28;20517;-86
2022/08/05 00:48:52;;;;;;;4.90;2.40;;;18.60;99.90;;;;;;4996949;28;21013;-87
2022/08/05 00:51:19;;;;;;;4.30;2.00;;;18.60;99.90;;;;;;4993245;28;20226;-87
2022/08/05 00:53:44;;;;;;;3.33;1.67;;;18.60;99.90;;;;;;4994453;28;20919;-87
2022/08/05 00:56:10;;;;;;;5.10;2.03;;;18.60;99.90;;;;;;4994652;28;20424;-87
2022/08/05 00:58:36;;;;;;;3.10;1.10;;;18.70;99.90;;;;;;4993130;28;20175;-87
2022/08/05 01:01:04;;;;;;;2.90;1.40;;;18.70;99.90;;;;;;4994658;28;20419;-87
2022/08/05 01:03:30;;;;;;;2.67;1.53;;;18.50;99.90;;;;;;4994724;28;20844;-86
2022/08/05 01:05:58;;;;;;;2.77;1.47;;;18.50;99.90;;;;;;4994733;28;20459;-86
2022/08/05 01:08:23;;;;;;;2.10;1.07;;;18.60;99.90;;;;;;4993450;28;20585;-86
2022/08/05 01:11:05;;;;;;;2.70;1.07;;;18.60;99.90;;;;;;4993437;28;20508;-87
2022/08/05 01:13:45;;;;;;;2.23;1.00;;;18.50;99.90;;;;;;4993480;28;20196;-86
2022/08/05 01:16:37;;;;;;;3.27;0.67;;;18.30;99.90;;;;;;4994336;28;20466;-87
2022/08/05 01:19:19;;;;;;;1.70;0.60;;;18.30;99.90;;;;;;4994822;28;20417;-89
2022/08/05 01:22:12;;;;;;;2.70;0.67;;;18.20;99.90;;;;;;4994542;28;20425;-86
2022/08/05 01:24:58;;;;;;;3.30;1.00;;;18.20;99.90;;;;;;4993080;28;20478;-87
2022/08/05 01:27:49;;;;;;;1.20;0.80;;;18.20;99.90;;;;;;4992817;28;20889;-86
2022/08/05 01:30:16;;;;;;;2.17;0.90;;;18.20;99.90;;;;;;4994136;28;20951;-88
2022/08/05 01:32:45;;;;;;;0.77;0.50;;;18.20;99.90;;;;;;4992954;28;20441;-86
2022/08/05 01:35:16;;;;;;;1.90;0.70;;;18.10;99.90;;;;;;4994259;28;20424;-87
2022/08/05 01:37:49;;;;;;;2.83;0.87;;;18.10;99.90;;;;;;4992897;28;20869;-87
2022/08/05 01:40:16;;;;;;;1.27;0.83;;;18.20;99.90;;;;;;4993958;28;20417;-87
2022/08/05 01:42:43;;;;;;;2.50;0.63;;;18.20;99.90;;;;;;4992471;28;20905;-89
2022/08/05 01:45:10;;;;;;;1.30;0.50;;;18.10;99.90;;;;;;4993719;28;20422;-86
2022/08/05 01:47:37;;;;;;;1.50;0.67;;;18.10;99.90;;;;;;4992399;28;20499;-88
2022/08/05 01:50:05;;;;;;;1.37;0.40;;;18.00;99.90;;;;;;4992424;28;20622;-88
2022/08/05 01:52:35;;;;;;;1.00;0.50;;;18.00;99.90;;;;;;4992802;28;20507;-87
2022/08/05 01:55:05;;;;;;;1.23;0.40;;;18.00;99.90;;;;;;4993238;28;20424;-88
2022/08/05 01:57:36;;;;;;;0.80;0.40;;;17.90;99.90;;;;;;4992369;28;20422;-89
2022/08/05 02:00:05;;;;;;;1.70;0.23;;;17.90;99.90;;;;;;4993826;28;20421;-88
2022/08/05 02:02:32;;;;;;;1.70;0.90;;;18.00;99.90;;;;;;4992442;28;20432;-88
2022/08/05 02:05:07;;;;;;;1.57;0.63;;;17.90;99.90;;;;;;4992438;28;20430;-89
2022/08/05 02:07:33;;;;;;;1.80;0.60;;;17.80;99.90;;;;;;4992860;28;20419;-87
2022/08/05 02:10:00;;;;;;;1.43;0.80;;;17.80;99.90;;;;;;4992470;28;20469;-89
2022/08/05 02:12:48;;;;;;;0.80;0.20;;;17.80;99.90;;;;;;4992127;28;20528;-89
2022/08/05 02:15:33;;;;;;;1.27;0.47;;;17.80;99.90;;;;;;4993459;28;20404;-89
2022/08/05 02:18:02;;;;;;;0.70;0.40;;;17.80;99.90;;;;;;4993748;28;20457;-90
2022/08/05 02:20:38;;;;;;;2.20;0.50;;;17.90;99.90;;;;;;4992602;28;20413;-89
2022/08/05 02:23:09;;;;;;;1.63;0.50;;;17.80;99.90;;;;;;4993721;28;20424;-86
2022/08/05 02:25:38;;;;;;;0.80;0.30;;;17.90;99.90;;;;;;4992508;28;20427;-86
2022/08/05 02:28:05;;;;;;;1.30;0.77;;;17.80;99.90;;;;;;4993516;28;20419;-89
2022/08/05 02:30:41;;;;;;;2.73;0.63;;;17.80;99.90;;;;;;4993498;28;20529;-90
2022/08/05 02:33:08;;;;;;;1.57;0.80;;;17.90;99.90;;;;;;4993750;28;20430;-87
2022/08/05 02:35:35;;;;;;;1.97;0.40;;;18.00;99.90;;;;;;4993191;28;20447;-84
2022/08/05 02:38:01;;;;;;;2.00;0.70;;;18.00;99.90;;;;;;4993669;28;20785;-90
2022/08/05 02:40:28;;;;;;;1.13;0.30;;;18.00;99.90;;;;;;4993752;28;20425;-91
2022/08/05 02:42:55;;;;;;;1.57;0.40;;;17.90;99.90;;;;;;4992994;28;20486;-91
2022/08/05 02:45:25;;;;;;;1.90;0.80;;;17.90;99.90;;;;;;4993191;28;20905;-91
2022/08/05 02:47:53;;;;;;;1.87;0.40;;;17.80;99.90;;;;;;4992902;28;20434;-91
2022/08/05 02:50:21;;;;;;;1.10;0.50;;;17.80;99.90;;;;;;4992696;28;20504;-90
2022/08/05 02:52:47;;;;;;;1.13;0.30;;;17.80;99.90;;;;;;4994276;28;21006;-91
2022/08/05 02:55:14;;;;;;;1.40;0.80;;;17.80;99.90;;;;;;4992845;28;20470;-91
2022/08/05 02:57:40;;;;;;;2.10;0.50;;;17.70;99.90;;;;;;4993106;28;20194;-94
2022/08/05 03:00:07;;;;;;;0.93;0.37;;;17.70;99.90;;;;;;4996745;28;20944;-92
2022/08/05 03:02:39;;;;;;;1.00;0.60;;;17.50;99.90;;;;;;4997140;28;20446;-91
2022/08/05 03:05:08;;;;;;;2.73;0.77;;;17.40;99.90;;;;;;4996843;28;20442;-93
2022/08/05 03:07:34;;;;;;;1.23;0.80;;;17.40;99.90;;;;;;4997547;28;20424;-93
2022/08/05 03:10:00;;;;;;;2.20;0.70;;;17.30;99.90;;;;;;4997279;28;20970;-94
2022/08/05 03:12:37;;;;;;;0.80;0.40;;;17.30;99.90;;;;;;4997127;28;20511;-92
2022/08/05 03:15:05;;;;;;;2.60;0.50;;;17.40;99.90;;;;;;4997353;28;20629;-93
2022/08/05 03:17:30;;;;;;;1.70;0.80;;;17.40;99.90;;;;;;4997058;28;20432;-93
2022/08/05 03:19:56;;;;;;;1.20;0.47;;;17.40;99.90;;;;;;4997202;28;20424;-92
2022/08/05 03:22:24;;;;;;;2.07;0.60;;;17.40;99.90;;;;;;4997101;28;20690;-93
2022/08/05 03:24:50;;;;;;;1.60;0.90;;;17.30;99.90;;;;;;4995834;28;20209;-93
2022/08/05 03:27:17;;;;;;;1.50;0.50;;;17.20;99.90;;;;;;4996732;28;20828;-92
2022/08/05 03:29:44;;;;;;;2.30;0.50;;;17.20;99.90;;;;;;4996677;28;20451;-94
2022/08/05 03:32:10;;;;;;;1.10;0.27;;;17.10;99.90;;;;;;4996633;28;20424;-92
2022/08/05 03:34:36;;;;;;;1.30;0.60;;;17.20;99.90;;;;;;4996698;28;20877;-92
2022/08/05 03:37:04;;;;;;;0.97;0.50;;;17.20;99.90;;;;;;4996658;28;20467;-93
2022/08/05 03:39:30;;;;;;;3.50;1.70;;;17.10;99.90;;;;;;4996682;28;20772;-93
2022/08/05 03:41:56;;;;;;;1.33;0.80;;;17.10;99.90;;;;;;4996638;28;20874;-93
2022/08/05 03:44:21;;;;;;;3.63;0.93;;;17.10;99.90;;;;;;4996665;28;20214;-92
2022/08/05 03:46:47;;;;;;;1.80;0.87;;;17.00;99.90;;;;;;4996594;28;20419;-91
2022/08/05 03:49:13;;;;;;;1.70;0.70;;;17.00;99.90;;;;;;4996112;28;20178;-90
2022/08/05 03:51:44;;;;;;;3.63;0.93;;;17.00;99.90;;;;;;4995661;28;20233;-91
2022/08/05 03:54:18;;;;;;;1.43;0.50;;;16.90;99.90;;;;;;4995836;28;20211;-90
2022/08/05 03:56:48;;;;;;;1.83;0.57;;;16.90;99.90;;;;;;4995579;28;20538;-91
2022/08/05 03:59:19;;;;;;;1.00;0.43;;;16.90;99.90;;;;;;4995809;28;20429;-92
2022/08/05 04:01:48;;;;;;;3.57;0.50;;;16.90;99.90;;;;;;4996626;28;20502;-91
2022/08/05 04:04:15;;;;;;;3.27;0.63;;;16.80;99.90;;;;;;4996122;28;20974;-92
2022/08/05 04:06:42;;;;;;;2.80;0.80;;;16.80;99.90;;;;;;4996553;28;20424;-92
2022/08/05 04:09:08;;;;;;;0.90;0.30;;;16.80;99.90;;;;;;4996048;28;20424;-91
2022/08/05 04:11:35;;;;;;;4.97;0.70;;;16.80;99.90;;;;;;4995792;28;20484;-90
2022/08/05 04:14:04;;;;;;;1.40;0.77;;;16.80;99.90;;;;;;4995654;28;20793;-93
2022/08/05 04:16:31;;;;;;;2.50;0.50;;;16.80;99.90;;;;;;4995471;28;20503;-91
2022/08/05 04:18:57;;;;;;;2.87;1.27;;;16.80;99.90;;;;;;4995460;28;20430;-92
2022/08/05 04:21:22;;;;;;;1.23;0.67;;;16.80;99.90;;;;;;4995999;28;20421;-92
2022/08/05 04:23:49;;;;;;;1.70;0.53;;;16.80;99.90;;;;;;4995551;28;20182;-92
2022/08/05 04:26:15;;;;;;;1.20;0.60;;;16.80;99.90;;;;;;4997646;28;20242;-92
2022/08/05 04:28:40;;;;;;;1.43;0.57;;;16.80;99.90;;;;;;4995991;28;20427;-91
2022/08/05 04:31:06;;;;;;;1.77;0.57;;;16.80;99.90;;;;;;4995849;28;20826;-93
2022/08/05 04:33:31;;;;;;;1.80;0.70;;;16.70;99.90;;;;;;4995314;28;20209;-90
2022/08/05 04:35:57;;;;;;;2.07;0.60;;;16.70;99.90;;;;;;4994715;28;20206;-90
2022/08/05 04:38:22;;;;;;;1.50;0.50;;;16.80;99.90;;;;;;4995758;28;20625;-90
2022/08/05 04:40:48;;;;;;;2.27;0.97;;;16.70;99.90;;;;;;4994562;28;20196;-89
2022/08/05 04:43:13;;;;;;;1.83;0.47;;;16.80;99.90;;;;;;4994284;28;20204;-89
2022/08/05 04:45:39;;;;;;;3.87;0.50;;;16.70;99.90;;;;;;4994663;28;20186;-90
2022/08/05 04:48:07;;;;;;;1.63;0.70;;;16.70;99.90;;;;;;4994416;28;20179;-90
2022/08/05 04:50:41;;;;;;;0.97;0.67;;;16.70;99.90;;;;;;4994016;28;20272;-89
2022/08/05 04:53:08;;;;;;;2.07;0.97;;;16.80;99.90;;;;;;4994423;28;20498;-90
2022/08/05 04:55:36;;;;;;;1.80;0.53;;;16.80;99.90;;;;;;4994335;28;20437;-90
2022/08/05 04:58:05;;;;;;;1.90;0.60;;;16.80;99.90;;;;;;4994190;28;20418;-90
2022/08/05 05:00:35;;;;;;;1.60;0.70;;;16.80;99.90;;;;;;4999530;28;20523;-90
2022/08/05 05:03:02;;;;;;;1.30;0.40;;;16.90;99.90;;;;;;4994350;28;20478;-89
2022/08/05 05:05:28;;;;;;;2.00;0.50;;;16.90;99.90;;;;;;4994172;28;20428;-90
2022/08/05 05:08:13;;;;;;;1.27;0.60;;;16.90;99.90;;;;;;4994156;28;20422;-90
2022/08/05 05:10:44;;;;;;;1.40;0.50;;;17.00;99.90;;;;;;4994788;28;20571;-90
2022/08/05 05:13:12;;;;;;;0.70;0.30;;;17.10;99.90;;;;;;4993695;28;20466;-90
2022/08/05 05:15:38;;;;;;;1.37;0.90;;;17.10;99.90;;;;;;4993894;28;20438;-88
2022/08/05 05:18:05;;;;;;;1.30;0.53;;;17.10;99.90;;;;;;4994462;28;20780;-91
2022/08/05 05:20:31;;;;;;;1.80;1.00;;;17.00;99.90;;;;;;4994454;28;20454;-90
2022/08/05 05:22:58;;;;;;;3.10;1.10;;;17.00;99.90;;;;;;4994095;28;20413;-91
2022/08/05 05:25:23;;;;;;;4.73;1.33;;;17.10;99.90;;;;;;4994333;28;20834;-92
2022/08/05 05:27:51;;;;;;;2.60;0.90;;;17.20;99.90;;;;;;4994032;28;20468;-93
2022/08/05 05:30:17;;;;;;;2.13;0.47;;;17.20;99.90;;;;;;4994198;28;20202;-92
2022/08/05 05:32:42;;;;;;;2.17;0.90;;;17.30;99.90;;;;;;4995397;28;20427;-93
2022/08/05 05:35:08;;;;;;;1.70;0.73;;;17.30;99.90;;;;;;4995464;28;20168;-93
2022/08/05 05:37:44;;;;;;;2.17;1.30;;;17.30;99.90;;;;;;4995310;28;20638;-92
2022/08/05 05:40:13;;;;;;;1.70;0.80;;;17.40;99.90;;;;;;4995390;28;20715;-93
2022/08/05 05:42:38;;;;;;;1.93;1.07;;;17.40;99.90;;;;;;4992484;28;20482;-87
2022/08/05 05:45:04;;;;;;;1.97;0.77;;;17.40;99.90;;;;;;4993786;28;20471;-89
2022/08/05 05:47:30;;;;;;;2.40;0.90;;;17.40;99.90;;;;;;4993882;28;20266;-86
2022/08/05 05:49:55;;;;;;;1.87;0.40;;;17.30;99.90;;;;;;4992141;28;20566;-87
2022/08/05 05:52:31;;;;;;;2.40;0.53;;;17.30;99.90;;;;;;4993838;28;20549;-89
2022/08/05 05:55:02;;;;;;;1.40;1.10;;;17.10;99.90;;;;;;4994405;28;20255;-92
2022/08/05 05:57:27;;;;;;;2.33;0.93;;;17.10;99.90;;;;;;4995792;28;20469;-95
2022/08/05 05:59:53;;;;;;;2.70;0.77;;;17.10;99.90;;;;;;4993404;28;20432;-92
2022/08/05 06:02:18;;;;;;;2.27;0.60;;;17.20;99.90;;;;;;4993264;28;20224;-89
2022/08/05 06:04:44;;;;;;;1.70;0.87;;;17.10;99.90;;;;;;4997241;28;20178;-90
2022/08/05 06:07:09;;;;;;;2.93;0.50;;;17.10;99.90;;;;;;4998834;28;20182;-90
2022/08/05 06:09:37;;;;;;;1.47;0.50;;;17.00;99.90;;;;;;4995684;28;20237;-90
2022/08/05 06:12:03;;;;;;;1.40;0.43;;;17.00;99.90;;;;;;4998383;28;20192;-90
2022/08/05 06:14:32;;;;;;;1.70;0.97;;;16.90;99.90;;;;;;4984303;28;20969;-91
2022/08/05 06:16:58;;;;;;;1.57;0.70;;;17.30;99.90;;;;;;5008254;28;20196;-86
2022/08/05 06:19:24;;;;;;;1.30;1.00;;;17.30;99.90;;;;;;4993548;28;20911;-89
2022/08/05 06:21:50;;;;;;;2.63;1.00;;;17.50;99.90;;;;;;4992805;28;20441;-88
2022/08/05 06:24:16;;;;;;;2.77;1.00;;;17.40;99.90;;;;;;4993750;28;20425;-87
2022/08/05 06:26:42;;;;;;;1.00;0.53;;;17.40;99.90;;;;;;4992317;28;20649;-89
2022/08/05 06:29:07;;;;;;;1.23;0.60;;;17.40;99.90;;;;;;4992441;28;20187;-89
2022/08/05 06:31:33;;;;;;;2.20;0.70;;;17.40;99.90;;;;;;4993692;28;20564;-89
2022/08/05 06:33:58;;;;;;;1.83;0.80;;;17.40;99.90;;;;;;4995686;28;20178;-89
2022/08/05 06:36:24;;;;;;;1.43;0.60;;;17.40;99.90;;;;;;4997537;28;20189;-87
2022/08/05 06:38:53;;;;;;;1.90;0.50;;;17.30;99.90;;;;;;4998017;28;20233;-88
2022/08/05 06:41:19;;;;;;;2.90;0.90;;;17.30;99.90;;;;;;4997413;28;20202;-89
2022/08/05 06:43:45;;;;;;;1.60;0.60;;;17.40;99.90;;;;;;4997565;28;20456;-91
2022/08/05 06:46:10;;;;;;;3.10;0.80;;;17.50;99.90;;;;;;4996375;28;20472;-90
2022/08/05 06:48:38;;;;;;;1.60;0.67;;;17.70;99.90;;;;;;4997740;28;20541;-89
2022/08/05 06:51:04;;;;;;;2.23;1.17;;;18.00;99.90;;;;;;5012105;28;20713;-88
2022/08/05 06:53:30;;;;;;;2.70;0.87;;;18.00;99.90;;;;;;5016027;28;20479;-88
2022/08/05 06:55:57;;;;;;;1.33;0.77;;;18.00;99.90;;;;;;5016423;28;20713;-93
2022/08/05 06:58:23;;;;;;;4.00;1.30;;;18.10;99.90;;;;;;5018399;28;20177;-86
2022/08/05 07:00:48;;;;;;;2.00;0.67;;;18.20;99.90;;;;;;5017922;28;21001;-87
2022/08/05 07:03:17;;;;;;;2.23;0.80;;;18.50;99.90;;;;;;5017091;28;20186;-86
2022/08/05 07:05:43;;;;;;;1.67;0.70;;;18.80;99.90;;;;;;5016829;28;20196;-86
2022/08/05 07:08:08;;;;;;;2.43;1.00;;;18.90;99.90;;;;;;5015757;28;20785;-88
2022/08/05 07:10:34;;;;;;;4.50;2.23;;;21.00;99.90;;;;;;5016596;28;20484;-89
2022/08/05 07:18:27;;;;;;;3.07;0.83;;;19.20;99.90;;;;;;5017054;28;20423;-86
2022/08/05 07:20:53;;;;;;;1.13;0.73;;;19.00;99.90;;;;;;5016436;28;20517;-88
2022/08/05 07:23:18;;;;;;;1.70;0.70;;;18.70;99.90;;;;;;4998623;28;20634;-86
2022/08/05 07:25:44;;;;;;;1.67;0.67;;;18.50;99.90;;;;;;5016263;28;20233;-86
2022/08/05 07:28:09;;;;;;;1.70;1.10;;;18.40;99.90;;;;;;4998993;28;20176;-92
2022/08/05 07:30:36;;;;;;;2.13;0.83;;;18.30;99.90;;;;;;5017087;28;20230;-90
2022/08/05 07:33:03;;;;;;;1.80;1.07;;;18.30;99.90;;;;;;5016529;28;20180;-86
2022/08/05 07:35:29;;;;;;;2.20;0.93;;;18.20;99.90;;;;;;5015963;28;20914;-91
2022/08/05 07:37:55;;;;;;;2.03;1.20;;;18.20;99.90;;;;;;4998638;28;20567;-87
2022/08/05 07:40:21;;;;;;;1.60;0.70;;;18.10;99.90;;;;;;5015301;28;21020;-87
2022/08/05 07:42:47;;;;;;;1.50;0.73;;;18.20;99.90;;;;;;5014776;28;20436;-86
2022/08/05 07:45:13;;;;;;;1.87;1.07;;;18.20;99.90;;;;;;5018239;28;20182;-87
2022/08/05 07:47:38;;;;;;;1.87;0.60;;;18.20;99.90;;;;;;5018155;28;20447;-86
2022/08/05 07:50:04;;;;;;;1.70;0.43;;;18.30;99.90;;;;;;5016544;28;20827;-85
2022/08/05 07:52:30;;;;;;;2.77;0.40;;;18.20;99.90;;;;;;4996609;28;20281;-86
2022/08/05 07:54:56;;;;;;;1.00;0.50;;;18.10;99.90;;;;;;5014062;28;20557;-86
2022/08/05 07:57:21;;;;;;;1.43;0.70;;;18.10;99.90;;;;;;5013793;28;20177;-86
2022/08/05 07:59:47;;;;;;;1.87;0.50;;;18.00;99.90;;;;;;5014554;28;20189;-87
2022/08/05 08:02:12;;;;;;;1.13;0.67;;;17.90;99.90;;;;;;5014562;28;20184;-85
2022/08/05 08:04:38;;;;;;;3.20;0.63;;;17.90;99.90;;;;;;5014367;28;20202;-89
2022/08/05 08:07:04;;;;;;;3.20;1.40;;;17.80;99.90;;;;;;4996557;28;20228;-90
2022/08/05 08:09:29;;;;;;;2.40;1.47;;;17.90;99.90;;;;;;5014126;28;20204;-85
2022/08/05 08:11:55;;;;;;;1.70;1.17;;;17.90;99.90;;;;;;5013957;28;20558;-90
2022/08/05 08:14:20;;;;;;;2.40;0.53;;;17.80;99.90;;;;;;5013876;28;20170;-86
2022/08/05 08:16:46;;;;;;;1.50;0.73;;;17.80;99.90;;;;;;5014303;28;20185;-87
2022/08/05 08:19:11;;;;;;;2.03;0.70;;;17.80;99.90;;;;;;5014440;28;20166;-86
2022/08/05 08:21:36;;;;;;;1.70;0.83;;;17.90;99.90;;;;;;5014184;28;20186;-87
2022/08/05 08:24:02;;;;;;;1.90;0.77;;;17.90;99.90;;;;;;5014481;28;20261;-86
2022/08/05 08:26:28;;;;;;;2.43;1.07;;;18.00;99.90;;;;;;5013874;28;20205;-87
2022/08/05 08:28:53;;;;;;;1.23;0.67;;;18.10;99.90;;;;;;4996940;28;20185;-86
2022/08/05 08:31:19;;;;;;;3.07;1.17;;;18.10;99.90;;;;;;5014076;28;20206;-85
2022/08/05 08:33:45;;;;;;;1.83;0.60;;;18.00;99.90;;;;;;5014916;28;20625;-86
2022/08/05 08:36:10;;;;;;;3.63;0.77;;;18.00;99.90;;;;;;4996746;28;20227;-87
2022/08/05 08:38:36;;;;;;;1.10;0.80;;;17.90;99.90;;;;;;4996501;28;20438;-87
2022/08/05 08:41:06;;;;;;;1.30;0.57;;;17.80;99.90;;;;;;5014120;28;20181;-85
2022/08/05 08:43:33;;;;;;;2.70;1.17;;;17.80;99.90;;;;;;4996388;28;20653;-85
2022/08/05 08:46:01;;;;;;;2.57;1.00;;;17.80;99.90;;;;;;5014207;28;20494;-86
2022/08/05 08:48:29;;;;;;;1.13;0.80;;;17.80;99.90;;;;;;5013875;28;20956;-85
2022/08/05 08:50:55;;;;;;;1.73;0.80;;;17.90;99.90;;;;;;5013518;28;20481;-87
2022/08/05 08:53:22;;;;;;;2.77;0.77;;;17.90;99.90;;;;;;5013681;28;20422;-85
2022/08/05 08:55:48;;;;;;;1.47;0.87;;;17.90;99.90;;;;;;5012823;28;20426;-95
2022/08/05 08:58:14;;;;;;;2.30;1.13;;;17.90;99.90;;;;;;5015487;28;20424;-88
2022/08/05 09:00:43;;;;;;;1.60;0.90;;;18.10;99.90;;;;;;5014741;28;20191;-86
2022/08/05 09:03:12;;;;;;;3.03;1.50;;;17.90;99.90;;;;;;5014590;28;20454;-94
2022/08/05 09:05:38;;;;;;;1.80;1.00;;;17.90;99.90;;;;;;5013546;28;20428;-85
2022/08/05 09:08:04;;;;;;;2.73;1.43;;;17.90;99.90;;;;;;5013550;28;20437;-87
2022/08/05 09:10:30;;;;;;;2.40;1.47;;;17.90;99.90;;;;;;5013144;28;20209;-85
2022/08/05 09:12:56;;;;;;;2.00;1.07;;;17.90;99.90;;;;;;5013315;28;20514;-85
2022/08/05 09:15:22;;;;;;;1.23;0.80;;;17.90;99.90;;;;;;5013341;28;20179;-87
2022/08/05 09:17:49;;;;;;;1.13;0.63;;;17.80;99.90;;;;;;4995626;28;20493;-87
2022/08/05 09:20:15;;;;;;;1.00;0.60;;;17.90;99.90;;;;;;5013179;28;20416;-85
2022/08/05 09:23:03;;;;;;;2.77;0.77;;;17.90;99.90;;;;;;5012924;28;20767;-86
2022/08/05 09:25:29;;;;;;;2.73;1.30;;;17.90;99.90;;;;;;4994621;28;20181;-86
2022/08/05 09:27:55;;;;;;;1.77;1.03;;;17.80;99.90;;;;;;5013043;28;20420;-85
2022/08/05 09:30:21;;;;;;;1.30;0.93;;;17.80;99.90;;;;;;5012805;28;20287;-87
2022/08/05 09:32:46;;;;;;;1.90;0.50;;;17.90;99.90;;;;;;5013027;28;20214;-86
2022/08/05 09:35:16;;;;;;;2.33;1.17;;;17.90;99.90;;;;;;5013047;28;21024;-86
2022/08/05 09:37:49;;;;;;;1.40;0.87;;;18.00;99.90;;;;;;5012730;28;20174;-87
2022/08/05 09:40:31;;;;;;;1.97;0.90;;;18.10;99.90;;;;;;4993068;28;20456;-86
2022/08/05 09:42:57;;;;;;;2.53;1.17;;;18.20;99.90;;;;;;4997565;28;20460;-85
2022/08/05 09:45:38;;;;;;;1.67;0.83;;;18.30;99.90;;;;;;5006320;28;20445;-86
2022/08/05 09:48:28;;;;;;;1.87;1.30;;;18.20;99.90;;;;;;5012060;28;20424;-85
2022/08/05 09:50:57;;;;;;;2.90;0.90;;;18.20;99.90;;;;;;5012399;28;20473;-87
2022/08/05 09:53:23;;;;;;;1.40;1.07;;;18.20;99.90;;;;;;5012722;28;20816;-86
2022/08/05 09:55:59;;;;;;;2.40;0.70;;;18.20;99.90;;;;;;5012094;28;20428;-86
2022/08/05 09:58:26;;;;;;;1.33;0.90;;;18.10;99.90;;;;;;5013329;28;20420;-91
2022/08/05 10:01:06;;;;;;;2.00;1.27;;;18.10;99.90;;;;;;5007736;28;20461;-84
2022/08/05 10:03:32;;;;;;;2.53;1.30;;;17.90;99.90;;;;;;5013038;28;20929;-88
2022/08/05 10:06:08;;;;;;;2.27;0.67;;;17.90;99.90;;;;;;5012427;28;20438;-85
2022/08/05 10:08:36;;;;;;;2.30;0.97;;;17.90;99.90;;;;;;5009628;28;20429;-86
2022/08/05 10:11:03;;;;;;;2.50;1.27;;;18.10;99.90;;;;;;5012050;28;20560;-85
2022/08/05 10:13:34;;;;;;;2.13;1.90;;;18.10;99.90;;;;;;4994705;28;20425;-86
2022/08/05 10:16:01;;;;;;;2.37;1.20;;;18.10;99.90;;;;;;5012379;28;20414;-85
2022/08/05 10:18:26;;;;;;;2.97;1.60;;;18.20;99.90;;;;;;4994535;28;20990;-85
2022/08/05 10:21:00;;;;;;;2.00;0.80;;;18.30;99.90;;;;;;5012429;28;20418;-84
2022/08/05 10:23:34;;;;;;;1.17;0.27;;;18.30;99.90;;;;;;5012391;28;20643;-87
2022/08/05 10:26:05;;;;;;;1.00;0.50;;;18.30;99.90;;;;;;5010106;28;20429;-87
2022/08/05 10:28:30;;;;;;;1.73;0.90;;;18.20;99.90;;;;;;5012081;28;20457;-87
2022/08/05 10:30:57;;;;;;;2.97;0.83;;;18.20;99.90;;;;;;4994500;28;20489;-86
2022/08/05 10:33:25;;;;;;;1.17;0.67;;;18.10;99.90;;;;;;5012168;28;20194;-85
2022/08/05 10:35:51;;;;;;;1.27;0.80;;;18.30;99.90;;;;;;5012168;28;20417;-86
2022/08/05 10:38:19;;;;;;;3.60;0.47;;;18.30;99.90;;;;;;5011852;28;20780;-85
2022/08/05 10:40:48;;;;;;;1.07;0.60;;;18.40;99.90;;;;;;5011654;28;20519;-85
2022/08/05 10:43:32;;;;;;;0.80;0.37;;;18.30;99.90;;;;;;4994590;28;20457;-85
2022/08/05 10:46:09;;;;;;;1.10;0.40;;;18.30;99.90;;;;;;4995656;28;20436;-85
2022/08/05 10:48:43;;;;;;;1.07;0.50;;;18.20;99.90;;;;;;4995804;28;20920;-86
2022/08/05 10:51:12;;;;;;;1.30;0.67;;;18.10;99.90;;;;;;5013044;28;20494;-88
2022/08/05 10:53:38;;;;;;;1.10;0.37;;;17.90;99.90;;;;;;4995476;28;20766;-85
2022/08/05 10:56:15;;;;;;;2.00;0.77;;;17.90;99.90;;;;;;4995585;28;20468;-89
2022/08/05 10:58:59;;;;;;;0.90;0.43;;;17.80;99.90;;;;;;5012908;28;20772;-86
2022/08/05 11:01:36;;;;;;;1.17;0.93;;;17.90;99.90;;;;;;4993259;28;20930;-87
2022/08/05 11:04:08;;;;;;;1.27;0.53;;;17.90;99.90;;;;;;4993318;28;20414;-86
2022/08/05 11:06:56;;;;;;;2.30;0.83;;;18.00;99.90;;;;;;4993103;28;20422;-86
2022/08/05 11:09:24;;;;;;;2.00;0.70;;;18.00;99.90;;;;;;4992937;28;20991;-85
2022/08/05 11:11:53;;;;;;;1.47;0.40;;;18.00;99.90;;;;;;4991407;28;20476;-91
2022/08/05 11:14:37;;;;;;;2.30;0.40;;;17.90;99.90;;;;;;4993090;28;20410;-85
2022/08/05 11:17:25;;;;;;;2.17;0.80;;;17.80;99.90;;;;;;4992824;28;20942;-84
2022/08/05 11:19:52;;;;;;;1.63;0.90;;;17.80;99.90;;;;;;4993974;28;20426;-85
2022/08/05 11:22:39;;;;;;;2.30;1.07;;;17.70;99.90;;;;;;4995271;28;20441;-85
2022/08/05 11:25:34;;;;;;;2.60;0.90;;;17.70;99.90;;;;;;4996012;28;20886;-87
2022/08/05 11:28:08;;;;;;;1.10;0.40;;;17.70;99.90;;;;;;4996518;28;20428;-85
2022/08/05 11:30:56;;;;;;;1.10;0.60;;;17.80;99.90;;;;;;4996316;28;20507;-86
2022/08/05 11:33:35;;;;;;;1.37;1.03;;;17.70;99.90;;;;;;4996375;28;20417;-94
2022/08/05 11:36:09;;;;;;;1.53;0.70;;;17.70;99.90;;;;;;4979432;28;20802;-85
2022/08/05 11:38:37;;;;;;;1.20;0.90;;;17.70;99.90;;;;;;4995886;28;20421;-92
2022/08/05 11:41:04;;;;;;;1.87;0.83;;;17.60;99.90;;;;;;4996050;28;20449;-87
2022/08/05 11:43:31;;;;;;;1.43;0.70;;;17.50;99.90;;;;;;4995181;28;20419;-85
2022/08/05 11:45:58;;;;;;;1.00;0.30;;;17.50;99.90;;;;;;4997608;28;20425;-90
2022/08/05 11:48:24;;;;;;;0.87;0.70;;;17.50;99.90;;;;;;4996230;28;20525;-87
2022/08/05 11:50:51;;;;;;;0.80;0.30;;;17.30;99.90;;;;;;5008791;28;20477;-84
2022/08/05 11:53:18;;;;;;;0.70;0.30;;;17.40;99.90;;;;;;5009113;28;20427;-86
2022/08/05 11:55:58;;;;;;;0.63;0.30;;;17.40;99.90;;;;;;4993630;28;20815;-88
2022/08/05 11:58:34;;;;;;;1.07;0.60;;;17.50;99.90;;;;;;5005584;28;20440;-86
2022/08/05 12:01:02;;;;;;;1.47;0.40;;;17.60;99.90;;;;;;4998239;28;20445;-92
2022/08/05 12:03:28;;;;;;;1.10;0.47;;;17.60;99.90;;;;;;4996723;28;20422;-85
2022/08/05 12:06:00;;;;;;;0.87;0.50;;;17.50;99.90;;;;;;4997393;28;20409;-93
2022/08/05 12:08:26;;;;;;;1.20;0.43;;;17.50;99.90;;;;;;4980150;28;20421;-89
2022/08/05 12:10:56;;;;;;;1.57;0.50;;;17.40;99.90;;;;;;5004349;28;20466;-89
2022/08/05 12:13:22;;;;;;;1.50;0.37;;;17.20;99.90;;;;;;4985662;28;20173;-88
2022/08/05 12:15:47;;;;;;;0.73;0.23;;;17.20;99.90;;;;;;5004589;28;20467;-89
2022/08/05 12:18:17;;;;;;;1.17;0.40;;;17.30;99.90;;;;;;4986196;28;20169;-92
2022/08/05 12:20:42;;;;;;;1.40;0.70;;;17.50;99.90;;;;;;4996101;28;20184;-87
2022/08/05 12:23:09;;;;;;;1.07;0.50;;;17.60;99.90;;;;;;5017529;28;20421;-90
2022/08/05 12:25:53;;;;;;;3.50;0.40;;;17.70;99.90;;;;;;5000789;28;20601;-86
2022/08/05 12:28:36;;;;;;;1.30;0.50;;;17.80;99.90;;;;;;5016822;28;20447;-86
2022/08/05 12:31:03;;;;;;;1.07;0.43;;;17.80;99.90;;;;;;5020441;28;21023;-85
2022/08/05 12:33:29;;;;;;;0.63;0.27;;;17.90;99.90;;;;;;5001602;28;20427;-85
2022/08/05 12:35:55;;;;;;;2.23;0.70;;;18.30;99.90;;;;;;5020127;28;20426;-89
2022/08/05 12:38:22;;;;;;;2.40;0.80;;;18.60;99.90;;;;;;5022363;28;20497;-89
2022/08/05 12:40:49;;;;;;;1.87;0.87;;;19.40;99.90;;;;;;5024399;28;20488;-85
2022/08/05 12:43:15;;;;;;;1.57;0.57;;;19.90;99.90;;;;;;5009694;28;20431;-86
2022/08/05 12:45:54;;;;;;;1.03;0.50;;;19.60;99.90;;;;;;5022460;28;20424;-86
2022/08/05 12:48:20;;;;;;;1.13;0.30;;;19.50;99.90;;;;;;5021289;28;20276;-90
2022/08/05 12:51:13;;;;;;;0.87;0.20;;;19.20;99.90;;;;;;5022825;28;20474;-87
2022/08/05 12:53:45;;;;;;;0.80;0.20;;;18.80;99.90;;;;;;5007645;28;20406;-87
2022/08/05 12:56:23;;;;;;;0.90;0.20;;;18.70;99.90;;;;;;5018977;28;20414;-88
2022/08/05 12:59:12;;;;;;;2.00;0.30;;;18.70;99.90;;;;;;5011555;28;20561;-86
2022/08/05 13:01:39;;;;;;;1.13;0.60;;;18.60;99.90;;;;;;5012615;28;20457;-86